Time;durP1;ratioP1;P1;durP2;ratioP2;P2;SDS_P1;SDS_P2;PMS_P1;PMS_P2;Temp;Humidity;BMP_temperature;BMP_pressure;BME280_temperature;BME280_humidity;BME280_pressure;Samples;Min_cycle;Max_cycle;Signal;HPM_P1;HPM_P2
2023/02/23 00:01:12;;;;;;;;;6.75;6.00;;;;;23.58;35.95;100696.72;5076658;27;45268;-73
2023/02/23 00:03:39;;;;;;;;;6.00;5.75;;;;;23.57;36.00;100695.00;5066044;28;45509;-72
2023/02/23 00:06:05;;;;;;;;;6.50;4.00;;;;;23.56;35.89;100693.31;5067694;28;48346;-72
2023/02/23 00:08:34;;;;;;;;;7.25;5.50;;;;;23.55;35.53;100692.47;5073184;28;45454;-72
2023/02/23 00:10:59;;;;;;;;;5.50;5.00;;;;;23.53;35.51;100688.22;5080043;28;45510;-73
2023/02/23 00:13:25;;;;;;;;;6.00;5.25;;;;;23.57;35.89;100693.19;5082430;27;45279;-73
2023/02/23 00:15:50;;;;;;;;;7.75;5.00;;;;;23.56;35.75;100696.00;5082840;28;45393;-73
2023/02/23 00:18:16;;;;;;;;;5.25;5.25;;;;;23.54;36.09;100687.25;5083836;27;45157;-71
2023/02/23 00:20:45;;;;;;;;;5.25;4.00;;;;;23.55;35.81;100686.28;5067388;28;45482;-71
2023/02/23 00:23:11;;;;;;;;;4.75;4.00;;;;;23.56;35.56;100691.50;5072632;28;45367;-72
2023/02/23 00:25:37;;;;;;;;;6.00;5.00;;;;;23.57;35.88;100689.66;5069564;27;52941;-73
2023/02/23 00:28:06;;;;;;;;;5.50;5.50;;;;;23.56;35.79;100687.97;5076609;27;45596;-72
2023/02/23 00:30:31;;;;;;;;;6.00;4.50;;;;;23.49;35.92;100685.78;5060390;28;45261;-73
2023/02/23 00:32:56;;;;;;;;;5.00;4.00;;;;;23.45;35.51;100675.50;5053201;28;45323;-72
2023/02/23 00:35:23;;;;;;;;;6.25;5.00;;;;;23.39;35.72;100663.53;5061306;28;47078;-73
2023/02/23 00:37:49;;;;;;;;;5.75;4.75;;;;;23.39;35.83;100665.31;5056207;28;45345;-72
2023/02/23 00:40:16;;;;;;;;;4.00;4.00;;;;;23.49;35.97;100688.47;5072584;27;45370;-72
2023/02/23 00:42:46;;;;;;;;;6.25;5.25;;;;;23.52;35.68;100691.88;5049544;28;45445;-73
2023/02/23 00:45:12;;;;;;;;;7.00;5.00;;;;;23.42;35.79;100673.09;5067172;27;46264;-73
2023/02/23 00:47:41;;;;;;;;;8.00;5.25;;;;;23.47;35.65;100682.41;5067063;27;45498;-72
2023/02/23 00:50:13;;;;;;;;;4.00;4.00;;;;;23.47;35.97;100685.06;5066491;28;45524;-73
2023/02/23 00:52:40;;;;;;;;;6.25;4.00;;;;;23.51;35.43;100693.69;5059961;28;45676;-72
2023/02/23 00:55:07;;;;;;;;;4.00;2.00;;;;;23.49;35.71;100693.81;5077733;27;48114;-72
2023/02/23 00:57:33;;;;;;;;;4.25;4.25;;;;;23.46;35.48;100687.88;5072788;28;46865;-72
2023/02/23 01:00:00;;;;;;;;;5.25;5.00;;;;;23.46;35.87;100683.41;5080447;27;45387;-73
2023/02/23 01:02:29;;;;;;;;;4.25;4.00;;;;;23.50;35.66;100692.84;5077752;28;45629;-72
2023/02/23 01:04:55;;;;;;;;;5.25;3.50;;;;;23.48;35.60;100689.47;5079641;27;47670;-73
2023/02/23 01:07:24;;;;;;;;;5.25;5.25;;;;;23.47;35.97;100687.75;5071521;28;46279;-72
2023/02/23 01:09:50;;;;;;;;;6.75;5.00;;;;;23.50;35.84;100697.34;5068336;28;45395;-73
2023/02/23 01:12:15;;;;;;;;;5.00;5.00;;;;;23.44;35.59;100696.03;5057900;28;45403;-72
2023/02/23 01:14:41;;;;;;;;;5.00;5.00;;;;;23.49;35.50;100693.81;5072338;28;45499;-72
2023/02/23 01:17:06;;;;;;;;;5.00;4.50;;;;;23.38;35.65;100677.84;5072778;27;45450;-72
2023/02/23 01:19:33;;;;;;;;;6.00;4.50;;;;;23.44;35.85;100688.03;5073339;28;45251;-73
2023/02/23 01:21:58;;;;;;;;;5.00;5.00;;;;;23.48;35.57;100696.63;5056605;28;45740;-72
2023/02/23 01:24:23;;;;;;;;;5.75;5.75;;;;;23.44;35.80;100684.50;5062887;27;48165;-72
2023/02/23 01:26:49;;;;;;;;;7.50;5.00;;;;;23.49;35.70;100700.97;5074018;28;45870;-72
2023/02/23 01:29:16;;;;;;;;;6.50;5.50;;;;;23.46;35.64;100699.44;5080051;27;45412;-72
2023/02/23 01:31:44;;;;;;;;;5.00;5.00;;;;;23.43;35.51;100697.00;5069862;27;45632;-72
2023/02/23 01:34:11;;;;;;;;;6.25;5.00;;;;;23.47;35.64;100702.94;5077813;28;45414;-73
2023/02/23 01:36:37;;;;;;;;;5.00;5.00;;;;;23.47;35.69;100701.09;5075015;27;45314;-73
2023/02/23 01:39:06;;;;;;;;;6.25;5.00;;;;;23.46;35.50;100702.09;5058215;28;45420;-72
2023/02/23 01:41:32;;;;;;;;;7.75;5.25;;;;;23.44;35.28;100695.16;5071655;27;45636;-73
2023/02/23 01:44:05;;;;;;;;;6.00;4.75;;;;;23.43;35.29;100697.00;5076104;27;45480;-73
2023/02/23 01:46:35;;;;;;;;;5.00;5.00;;;;;23.46;35.71;100701.22;5068544;28;46081;-73
2023/02/23 01:49:02;;;;;;;;;7.25;5.00;;;;;23.34;35.70;100680.88;5050468;28;45927;-72
2023/02/23 01:51:31;;;;;;;;;5.25;5.25;;;;;23.42;35.71;100692.63;5070512;28;45417;-72
2023/02/23 01:54:23;;;;;;;;;5.00;5.00;;;;;23.43;35.50;100699.66;5069585;27;46594;-72
2023/02/23 01:56:56;;;;;;;;;4.00;4.00;;;;;23.43;35.60;100697.00;5075276;27;45337;-72
2023/02/23 01:59:27;;;;;;;;;8.00;4.75;;;;;23.41;35.54;100698.97;5060884;28;45472;-72
2023/02/23 02:01:53;;;;;;;;;7.00;5.00;;;;;23.44;35.51;100705.84;5074202;27;45380;-72
2023/02/23 02:04:19;;;;;;;;;4.50;4.00;;;;;23.44;35.20;100698.72;5056975;28;52804;-72
2023/02/23 02:06:47;;;;;;;;;6.00;4.00;;;;;23.43;35.41;100697.00;5049943;28;45328;-72
2023/02/23 02:09:16;;;;;;;;;7.00;6.00;;;;;23.43;35.68;100697.00;5088724;27;45486;-72
2023/02/23 02:11:45;;;;;;;;;4.00;4.00;;;;;23.44;35.34;100696.03;5072007;27;45537;-73
2023/02/23 02:14:29;;;;;;;;;7.25;4.75;;;;;23.43;35.87;100689.00;5075631;27;45382;-72
2023/02/23 02:17:10;;;;;;;;;3.00;3.00;;;;;23.43;35.41;100685.47;5071479;27;45380;-73
2023/02/23 02:20:05;;;;;;;;;6.00;6.00;;;;;23.42;35.55;100689.94;5067407;27;45494;-73
2023/02/23 02:23:07;;;;;;;;;3.50;3.50;;;;;23.43;35.10;100688.16;5069966;27;45458;-73
2023/02/23 02:26:03;;;;;;;;;4.50;4.00;;;;;23.41;35.28;100688.28;5065221;28;46351;-73
2023/02/23 02:28:34;;;;;;;;;6.25;4.00;;;;;23.42;35.23;100679.25;5072061;27;45458;-72
2023/02/23 02:31:12;;;;;;;;;4.25;4.25;;;;;23.42;35.11;100686.44;5063873;28;45488;-73
2023/02/23 02:33:52;;;;;;;;;5.00;5.00;;;;;23.42;35.45;100684.59;5071890;27;45442;-72
2023/02/23 02:36:47;;;;;;;;;5.25;5.25;;;;;23.42;35.48;100686.44;5066162;28;45560;-72
2023/02/23 02:39:22;;;;;;;;;4.00;4.00;;;;;23.41;35.71;100684.72;5071544;27;46126;-72
2023/02/23 02:42:26;;;;;;;;;7.50;4.75;;;;;23.41;35.15;100684.72;5072802;28;45413;-72
2023/02/23 02:45:00;;;;;;;;;6.00;5.50;;;;;23.41;35.09;100696.28;5036777;28;45448;-72
2023/02/23 02:47:35;;;;;;;;;5.00;4.00;;;;;23.39;35.17;100694.69;5030263;28;46243;-73
2023/02/23 02:50:21;;;;;;;;;5.75;4.00;;;;;23.40;35.24;100693.72;5035837;28;45330;-73
2023/02/23 02:52:53;;;;;;;;;5.25;5.25;;;;;23.39;35.14;100686.69;5072198;28;45466;-72
2023/02/23 02:55:25;;;;;;;;;6.50;4.75;;;;;23.38;35.17;100688.50;5074757;27;46799;-72
2023/02/23 02:57:52;;;;;;;;;6.00;6.00;;;;;23.38;35.51;100687.69;5072948;28;46410;-72
2023/02/23 04:19:48;;;;;;;;;5.00;4.00;;;;;23.28;34.90;100703.59;5062445;28;73247;-70
2023/02/23 04:22:13;;;;;;;;;3.00;3.00;;;;;23.28;34.76;100700.91;5064281;28;45599;-70
2023/02/23 04:24:39;;;;;;;;;3.50;3.50;;;;;23.28;34.67;100698.25;5074377;27;45517;-70
2023/02/23 04:27:05;;;;;;;;;4.00;4.00;;;;;23.28;35.18;100701.78;5068717;28;45426;-70
2023/02/23 04:29:30;;;;;;;;;5.00;4.00;;;;;23.27;34.84;100702.75;5064494;27;45626;-72
2023/02/23 04:31:55;;;;;;;;;5.00;5.00;;;;;23.27;34.81;100701.91;5073406;27;45357;-72
2023/02/23 04:34:21;;;;;;;;;3.00;3.00;;;;;23.25;34.83;100704.69;5049769;27;69467;-72
2023/02/23 04:36:46;;;;;;;;;7.50;5.00;;;;;23.25;34.64;100704.69;5057040;28;65046;-72
2023/02/23 04:39:12;;;;;;;;;6.00;4.75;;;;;23.28;34.66;100715.13;5066594;28;45395;-72
2023/02/23 04:41:37;;;;;;;;;3.50;3.50;;;;;23.28;34.84;100706.25;5071142;28;63199;-72
2023/02/23 04:44:03;;;;;;;;;4.00;3.25;;;;;23.26;34.84;100701.03;5059137;28;60866;-72
2023/02/23 04:46:29;;;;;;;;;3.00;3.00;;;;;23.28;34.79;100711.59;5071631;28;45513;-72
2023/02/23 04:48:54;;;;;;;;;4.25;4.25;;;;;23.28;34.53;100714.25;5065584;27;45378;-72
2023/02/23 04:51:20;;;;;;;;;3.25;3.25;;;;;23.26;34.88;100717.06;5079513;27;59106;-72
2023/02/23 04:53:45;;;;;;;;;3.50;2.50;;;;;23.25;34.62;100709.19;5076653;28;54894;-72
2023/02/23 04:56:10;;;;;;;;;3.50;3.50;;;;;23.24;34.72;100702.16;5060681;28;47216;-72
2023/02/23 04:58:36;;;;;;;;;4.00;4.00;;;;;23.25;35.02;100707.38;5059713;28;45530;-72
2023/02/23 05:01:06;;;;;;;;;4.00;3.25;;;;;23.21;34.85;100713.91;5072725;27;45494;-72
2023/02/23 05:03:31;;;;;;;;;4.75;4.00;;;;;23.25;34.60;100725.22;5074600;27;45602;-72
2023/02/23 05:05:57;;;;;;;;;6.00;3.00;;;;;23.22;34.54;100723.63;5075885;27;58050;-72
2023/02/23 05:08:22;;;;;;;;;3.75;3.00;;;;;23.25;34.64;100722.53;5067260;28;60616;-72
2023/02/23 05:10:47;;;;;;;;;4.00;3.00;;;;;23.24;34.53;100726.19;5075371;27;53035;-70
2023/02/23 05:13:13;;;;;;;;;3.25;3.00;;;;;23.24;34.90;100734.19;5065099;27;60079;-71
2023/02/23 05:15:38;;;;;;;;;3.75;3.75;;;;;23.24;34.85;100744.88;5075569;28;70998;-70
2023/02/23 05:18:04;;;;;;;;;4.50;3.75;;;;;23.24;34.69;100734.19;5067984;28;45514;-70
2023/02/23 05:20:29;;;;;;;;;4.25;4.00;;;;;23.21;34.64;100735.25;5073072;27;45170;-71
2023/02/23 05:22:54;;;;;;;;;2.50;2.50;;;;;23.24;34.71;100739.53;5069523;27;45298;-72
2023/02/23 05:25:20;;;;;;;;;6.50;4.25;;;;;23.22;34.99;100744.97;5066077;28;66816;-72
2023/02/23 05:27:45;;;;;;;;;6.50;4.50;;;;;23.21;34.54;100740.59;5077954;28;52228;-72
2023/02/23 05:30:11;;;;;;;;;3.75;3.75;;;;;23.24;34.49;100751.03;5065086;27;62397;-72
2023/02/23 05:32:36;;;;;;;;;3.75;3.00;;;;;23.23;34.62;100746.69;5070176;27;45267;-72
2023/02/23 05:35:02;;;;;;;;;4.00;4.00;;;;;23.23;34.60;100743.16;5077922;28;70544;-72
2023/02/23 05:37:27;;;;;;;;;4.00;3.00;;;;;23.21;34.61;100745.09;5076712;27;45362;-70
2023/02/23 05:39:53;;;;;;;;;4.00;3.00;;;;;23.20;34.40;100751.44;5068014;27;61121;-71
2023/02/23 05:42:18;;;;;;;;;3.25;3.25;;;;;23.21;34.34;100751.28;5076215;27;45396;-70
2023/02/23 05:44:44;;;;;;;;;7.00;4.00;;;;;23.18;34.67;100750.69;5070361;27;67833;-70
2023/02/23 05:47:09;;;;;;;;;2.00;2.00;;;;;23.20;34.55;100759.44;5070877;28;65984;-70
2023/02/23 05:49:35;;;;;;;;;4.25;3.00;;;;;23.17;34.31;100755.19;5073904;27;45643;-70
2023/02/23 05:52:00;;;;;;;;;5.75;4.25;;;;;23.19;35.05;100752.38;5077975;28;45403;-70
2023/02/23 05:54:26;;;;;;;;;7.00;3.25;;;;;23.17;34.57;100755.19;5067906;28;66049;-70
2023/02/23 05:56:51;;;;;;;;;4.00;4.00;;;;;23.20;34.36;100754.09;5073270;27;45502;-70
2023/02/23 05:59:16;;;;;;;;;2.00;2.00;;;;;23.17;34.51;100751.66;5064885;27;45533;-70
2023/02/23 06:01:42;;;;;;;;;5.25;4.00;;;;;23.18;34.71;100751.56;5071860;27;45449;-70
2023/02/23 06:04:07;;;;;;;;;4.00;3.00;;;;;23.15;34.27;100746.44;5071460;27;60685;-70
2023/02/23 06:06:32;;;;;;;;;4.00;4.00;;;;;23.18;34.35;100753.34;5077830;27;45459;-69
2023/02/23 06:08:58;;;;;;;;;2.00;2.00;;;;;23.18;34.94;100751.56;5071660;27;45389;-69
2023/02/23 06:11:23;;;;;;;;;3.00;2.75;;;;;23.17;34.71;100752.50;5058314;28;54402;-70
2023/02/23 06:13:49;;;;;;;;;3.50;3.00;;;;;23.17;34.49;100751.66;5073256;27;46322;-71
2023/02/23 06:16:14;;;;;;;;;4.00;4.00;;;;;23.18;34.43;100753.34;5065969;28;45472;-70
2023/02/23 06:18:39;;;;;;;;;6.75;4.25;;;;;23.15;34.65;100748.28;5066836;28;53008;-70
2023/02/23 06:21:05;;;;;;;;;3.25;3.25;;;;;23.16;34.79;100748.16;5056823;28;62663;-70
2023/02/23 06:23:31;;;;;;;;;5.00;2.75;;;;;23.16;34.24;100750.81;5055060;27;63089;-70
2023/02/23 06:25:58;;;;;;;;;3.50;3.50;;;;;23.16;34.58;100756.16;5062792;28;57957;-69
2023/02/23 06:28:24;;;;;;;;;3.25;2.00;;;;;23.17;34.65;100757.00;5084032;27;45417;-69
2023/02/23 06:30:53;;;;;;;;;2.25;2.00;;;;;23.16;34.39;100744.63;5071238;28;45434;-68
2023/02/23 06:33:18;;;;;;;;;3.00;3.00;;;;;23.17;34.73;100757.84;5055319;28;48621;-70
2023/02/23 06:35:45;;;;;;;;;4.25;3.00;;;;;23.17;34.58;100754.34;5057204;28;45490;-70
2023/02/23 06:38:10;;;;;;;;;3.50;3.00;;;;;23.18;34.58;100753.34;5072988;27;45691;-71
2023/02/23 06:40:37;;;;;;;;;3.25;3.00;;;;;23.15;34.62;100750.94;5066258;28;56046;-71
2023/02/23 06:43:04;;;;;;;;;4.00;3.25;;;;;23.15;34.61;100749.13;5076290;27;47425;-72
2023/02/23 06:45:30;;;;;;;;;3.25;3.00;;;;;23.17;34.86;100757.84;5067922;28;45283;-72
2023/02/23 06:47:56;;;;;;;;;6.00;4.00;;;;;23.16;34.39;100750.81;5068628;27;46062;-72
2023/02/23 06:50:21;;;;;;;;;4.75;3.25;;;;;23.12;34.68;100742.22;5064139;28;45512;-72
2023/02/23 06:52:47;;;;;;;;;3.00;3.00;;;;;23.18;34.88;100754.22;5073195;27;69557;-72
2023/02/23 06:55:13;;;;;;;;;4.00;4.00;;;;;23.19;34.23;100757.72;5074776;28;45407;-72
2023/02/23 06:57:38;;;;;;;;;4.50;3.00;;;;;23.16;34.39;100758.84;5074686;27;45426;-71
2023/02/23 07:00:04;;;;;;;;;4.00;3.75;;;;;23.16;34.64;100764.19;5078527;28;45398;-72
2023/02/23 07:02:30;;;;;;;;;3.50;3.00;;;;;23.19;34.41;100774.59;5079245;27;45417;-72
2023/02/23 07:04:56;;;;;;;;;3.75;3.00;;;;;23.20;34.39;100778.97;5074142;27;45777;-74
2023/02/23 07:07:24;;;;;;;;;3.75;3.50;;;;;23.17;34.73;100771.19;5069061;27;45631;-77
2023/02/23 07:09:49;;;;;;;;;5.00;2.75;;;;;23.21;34.50;100777.16;5077735;27;45796;-72
2023/02/23 07:12:15;;;;;;;;;4.25;3.25;;;;;23.20;34.39;100778.97;5070863;27;45425;-72
2023/02/23 07:14:40;;;;;;;;;3.50;3.00;;;;;23.20;34.77;100775.47;5048252;28;45530;-72
2023/02/23 07:17:06;;;;;;;;;5.00;3.00;;;;;23.19;34.64;100769.25;5073975;28;45329;-72
2023/02/23 07:19:32;;;;;;;;;4.25;2.00;;;;;23.20;34.65;100773.63;5077144;27;45568;-72
2023/02/23 07:21:57;;;;;;;;;2.25;1.25;;;;;23.22;34.49;100774.34;5072576;27;46375;-72
2023/02/23 07:24:23;;;;;;;;;4.75;3.75;;;;;23.25;34.16;100783.97;5049869;28;45848;-72
2023/02/23 07:26:48;;;;;;;;;3.00;3.00;;;;;23.22;34.48;100779.69;5071073;28;62134;-72
2023/02/23 07:29:14;;;;;;;;;4.25;2.00;;;;;23.27;34.30;100788.19;5069666;28;45547;-72
2023/02/23 07:31:39;;;;;;;;;2.75;2.75;;;;;23.21;34.78;100788.66;5067325;27;46131;-72
2023/02/23 07:34:06;;;;;;;;;4.25;3.75;;;;;23.25;34.65;100794.63;5049652;28;46164;-72
2023/02/23 07:36:31;;;;;;;;;3.00;3.00;;;;;23.27;34.60;100806.03;5075217;27;45520;-72
2023/02/23 07:38:56;;;;;;;;;3.75;2.75;;;;;23.30;34.77;100814.66;5073939;28;67094;-72
2023/02/23 07:41:22;;;;;;;;;2.00;2.00;;;;;23.29;34.46;100807.59;5065988;28;53408;-72
2023/02/23 07:43:48;;;;;;;;;5.00;3.00;;;;;23.33;34.31;100823.38;5067625;27;45266;-72
2023/02/23 07:46:14;;;;;;;;;3.00;3.00;;;;;23.31;34.54;100819.00;5074730;27;45288;-72
2023/02/23 07:48:43;;;;;;;;;4.00;2.75;;;;;23.27;34.17;100814.91;5059272;27;45531;-73
2023/02/23 07:51:11;;;;;;;;;4.00;4.00;;;;;23.32;34.47;100827.88;5073272;28;45762;-79
2023/02/23 07:53:36;;;;;;;;;4.00;3.00;;;;;23.34;34.35;100825.94;5073714;27;45745;-84
2023/02/23 07:56:02;;;;;;;;;5.00;3.50;;;;;23.38;34.63;100823.88;5066560;27;45367;-78
2023/02/23 07:58:29;;;;;;;;;6.00;4.75;;;;;23.38;34.68;100831.88;5055445;28;45436;-70
2023/02/23 08:00:55;;;;;;;;;8.25;6.75;;;;;23.38;34.87;100827.38;5071289;28;45805;-73
2023/02/23 08:03:21;;;;;;;;;9.00;8.25;;;;;23.38;34.21;100835.41;5052213;28;45830;-73
2023/02/23 08:05:46;;;;;;;;;13.50;8.25;;;;;23.31;34.00;100821.69;5064060;27;45303;-71
2023/02/23 08:08:11;;;;;;;;;12.25;11.00;;;;;23.25;33.35;100826.69;5074606;27;61313;-72
2023/02/23 08:10:38;;;;;;;;;13.00;10.50;;;;;23.19;33.36;100828.00;5070158;27;51175;-71
2023/02/23 08:13:04;;;;;;;;;13.00;11.25;;;;;23.13;33.51;100833.81;5054256;28;45695;-73
2023/02/23 08:15:30;;;;;;;;;15.00;12.00;;;;;23.03;33.16;100825.63;5072797;28;45426;-73
2023/02/23 08:17:55;;;;;;;;;13.75;12.25;;;;;23.00;32.89;100831.25;5074148;27;45222;-72
2023/02/23 08:20:21;;;;;;;;;15.00;10.00;;;;;22.89;32.79;100824.03;5068300;28;46159;-72
2023/02/23 08:22:46;;;;;;;;;14.25;12.50;;;;;22.85;33.08;100821.75;5076384;27;62287;-71
2023/02/23 08:25:11;;;;;;;;;12.50;10.25;;;;;22.79;32.88;100825.75;5074919;27;45326;-72
2023/02/23 08:27:37;;;;;;;;;13.25;12.25;;;;;22.77;32.76;100827.69;5081941;27;64175;-71
2023/02/23 08:30:04;;;;;;;;;11.75;11.00;;;;;22.72;32.95;100830.69;5072029;28;47562;-72
2023/02/23 08:32:36;;;;;;;;;14.25;11.75;;;;;22.63;32.82;100815.41;5078931;27;45917;-70
2023/02/23 08:35:01;;;;;;;;;14.25;14.25;;;;;22.58;33.22;100822.91;5070958;27;45363;-70
2023/02/23 08:37:30;;;;;;;;;16.25;12.00;;;;;22.51;32.88;100824.34;5076131;27;67963;-70
2023/02/23 08:39:56;;;;;;;;;16.50;14.00;;;;;22.44;32.82;100825.78;5086285;27;70656;-70
2023/02/23 08:42:21;;;;;;;;;14.50;14.25;;;;;22.37;32.85;100820.88;5069046;28;45491;-70
2023/02/23 08:44:49;;;;;;;;;16.25;14.00;;;;;22.30;33.04;100821.47;5073185;28;55993;-70
2023/02/23 08:47:22;;;;;;;;;17.75;14.25;;;;;22.27;33.09;100838.53;5079228;27;45275;-72
2023/02/23 08:49:53;;;;;;;;;18.25;14.00;;;;;22.23;32.46;100842.38;5053619;28;47536;-71
2023/02/23 08:52:18;;;;;;;;;15.00;14.75;;;;;22.18;32.64;100839.19;5080749;27;45331;-71
2023/02/23 08:54:44;;;;;;;;;14.50;12.75;;;;;22.14;32.44;100838.56;5080651;28;45421;-71
2023/02/23 08:57:09;;;;;;;;;17.50;13.00;;;;;22.06;32.85;100832.97;5067266;27;45358;-71
2023/02/23 08:59:35;;;;;;;;;14.25;11.00;;;;;21.98;32.92;100833.53;5081318;27;48839;-72
2023/02/23 09:02:01;;;;;;;;;13.00;12.00;;;;;21.98;32.51;100843.34;5076150;27;45612;-72
2023/02/23 09:04:26;;;;;;;;;13.50;11.25;;;;;21.94;32.77;100841.88;5070811;28;50957;-71
2023/02/23 09:06:51;;;;;;;;;14.00;12.25;;;;;21.88;32.68;100840.47;5080653;27;45363;-71
2023/02/23 09:09:17;;;;;;;;;14.75;10.75;;;;;21.85;32.87;100840.72;5074274;28;45992;-71
2023/02/23 09:11:42;;;;;;;;;12.25;12.25;;;;;21.85;32.93;100848.72;5058942;28;45492;-72
2023/02/23 09:14:08;;;;;;;;;14.75;11.25;;;;;21.79;32.68;100836.66;5057441;28;46028;-72
2023/02/23 09:16:35;;;;;;;;;15.50;11.00;;;;;21.77;32.39;100838.59;5056652;28;45561;-69
2023/02/23 09:19:01;;;;;;;;;15.00;14.25;;;;;21.72;32.49;100842.56;5061506;28;47173;-70
2023/02/23 09:21:28;;;;;;;;;18.75;13.50;;;;;21.70;32.96;100842.69;5078065;27;45735;-69
2023/02/23 09:23:55;;;;;;;;;18.75;16.00;;;;;21.69;32.85;100845.44;5088978;27;45376;-69
2023/02/23 09:26:21;;;;;;;;;23.50;18.00;;;;;21.61;32.61;100846.00;5077571;27;45438;-70
2023/02/23 09:28:46;;;;;;;;;14.50;13.50;;;;;21.65;32.68;100857.28;5061416;28;47605;-69
2023/02/23 09:31:15;;;;;;;;;20.75;16.50;;;;;21.62;33.07;100850.38;5062553;28;45386;-70
2023/02/23 09:33:40;;;;;;;;;18.00;16.25;;;;;21.58;32.77;100852.41;5072705;28;45446;-70
2023/02/23 09:36:23;;;;;;;;;16.25;15.25;;;;;21.55;32.82;100852.63;5079839;27;64031;-70
2023/02/23 09:38:54;;;;;;;;;20.50;14.00;;;;;21.54;32.62;100847.41;5053368;28;46742;-69
2023/02/23 09:41:26;;;;;;;;;14.00;12.75;;;;;21.55;32.90;100849.13;5078192;27;45460;-70
2023/02/23 09:43:57;;;;;;;;;14.00;11.75;;;;;21.59;32.94;100854.09;5061694;28;45384;-70
2023/02/23 09:46:43;;;;;;;;;11.50;8.00;;;;;21.65;33.33;100859.94;5074355;27;45255;-70
2023/02/23 09:49:13;;;;;;;;;10.00;10.00;;;;;21.68;33.13;100865.91;5077404;27;45658;-69
2023/02/23 09:51:41;;;;;;;;;6.50;6.00;;;;;21.73;33.27;100871.75;5076957;27;45535;-70
2023/02/23 09:54:09;;;;;;;;;8.00;6.50;;;;;21.78;33.69;100872.28;5072456;28;45337;-70
2023/02/23 09:56:37;;;;;;;;;9.75;9.00;;;;;21.86;33.40;100874.38;5066664;28;46036;-71
2023/02/23 09:59:10;;;;;;;;;6.00;5.00;;;;;21.91;34.02;100874.06;5074676;27;45535;-73
2023/02/23 10:01:56;;;;;;;;;8.75;6.75;;;;;21.96;33.48;100872.75;5073370;27;45427;-73
2023/02/23 10:04:25;;;;;;;;;8.00;6.00;;;;;22.00;34.11;100870.72;5068296;27;45226;-73
2023/02/23 10:07:02;;;;;;;;;8.00;5.25;;;;;22.08;34.15;100872.81;5067482;27;45421;-72
2023/02/23 10:09:58;;;;;;;;;7.00;5.25;;;;;22.13;34.51;100868.00;5090339;27;45448;-73
2023/02/23 10:12:47;;;;;;;;;6.00;5.25;;;;;22.18;34.73;100871.19;5071000;27;45814;-72
2023/02/23 10:15:14;;;;;;;;;8.00;5.00;;;;;22.21;34.33;100862.13;5080436;27;45496;-73
2023/02/23 10:17:48;;;;;;;;;3.25;3.25;;;;;22.25;34.77;100863.59;5047517;28;45636;-73
2023/02/23 10:20:45;;;;;;;;;6.00;6.00;;;;;22.28;34.71;100872.25;5100588;27;48343;-82
2023/02/23 10:23:16;;;;;;;;;5.50;5.00;;;;;22.31;34.17;100866.69;5077998;27;45946;-75
2023/02/23 10:25:47;;;;;;;;;7.50;6.75;;;;;22.34;34.28;100871.78;5077926;27;45407;-74
2023/02/23 10:28:20;;;;;;;;;6.75;5.50;;;;;22.39;34.77;100871.44;5077967;27;45485;-73
2023/02/23 10:30:47;;;;;;;;;6.50;5.50;;;;;22.40;34.37;100864.28;5075507;27;47228;-73
2023/02/23 10:33:18;;;;;;;;;7.75;5.25;;;;;22.44;34.41;100871.94;5068472;27;45322;-74
2023/02/23 10:35:44;;;;;;;;;7.75;5.00;;;;;22.47;34.58;100870.84;5062828;27;45434;-74
2023/02/23 10:38:17;;;;;;;;;6.25;5.25;;;;;22.49;34.64;100869.78;5068309;27;45433;-74
2023/02/23 10:40:50;;;;;;;;;6.25;5.00;;;;;22.49;34.87;100863.63;5086845;27;46243;-75
2023/02/23 10:43:15;;;;;;;;;5.00;5.00;;;;;22.51;34.82;100867.84;5051521;28;45436;-75
2023/02/23 10:45:49;;;;;;;;;7.75;6.75;;;;;22.54;34.50;100872.97;5080531;27;45508;-75
2023/02/23 10:48:24;;;;;;;;;6.25;5.00;;;;;22.57;35.05;100871.88;5068288;27;45510;-75
2023/02/23 10:50:51;;;;;;;;;6.75;6.00;;;;;22.57;34.73;100877.22;5076564;27;45471;-73
2023/02/23 10:53:22;;;;;;;;;8.75;6.25;;;;;22.56;34.84;100868.34;5079271;27;45748;-72
2023/02/23 10:56:09;;;;;;;;;6.50;4.25;;;;;22.61;34.54;100875.16;5078527;27;45292;-72
2023/02/23 10:58:46;;;;;;;;;5.75;5.50;;;;;22.62;34.91;100868.88;5066199;27;45702;-74
2023/02/23 11:01:43;;;;;;;;;6.50;6.00;;;;;22.62;34.44;100875.03;5072838;27;45765;-73
2023/02/23 11:04:16;;;;;;;;;5.75;5.75;;;;;22.65;34.42;100871.31;5072865;27;45410;-73
2023/02/23 11:06:44;;;;;;;;;8.50;6.75;;;;;22.64;34.90;100862.44;5071207;27;45494;-72
2023/02/23 11:09:26;;;;;;;;;6.50;4.00;;;;;22.66;34.51;100863.16;5060647;28;45455;-74
2023/02/23 11:12:11;;;;;;;;;9.25;7.25;;;;;22.63;34.58;100860.75;5067914;27;45928;-74
2023/02/23 11:14:36;;;;;;;;;4.25;4.25;;;;;22.65;35.15;100861.47;5075989;28;45841;-74
2023/02/23 11:17:02;;;;;;;;;6.00;4.75;;;;;22.65;35.00;100857.97;5067460;28;56651;-75
2023/02/23 11:19:36;;;;;;;;;6.00;5.00;;;;;22.67;34.93;100864.88;5077430;28;45338;-75
2023/02/23 11:22:02;;;;;;;;;7.25;5.75;;;;;22.66;35.32;100863.16;5084736;27;46279;-75
2023/02/23 11:24:33;;;;;;;;;8.25;6.00;;;;;22.66;35.01;100859.66;5073582;28;45866;-75
2023/02/23 11:27:02;;;;;;;;;2.50;2.50;;;;;22.69;35.38;100857.59;5062019;28;45430;-75
2023/02/23 11:29:39;;;;;;;;;6.25;5.25;;;;;22.73;35.35;100864.44;5059293;28;46051;-75
2023/02/23 11:32:24;;;;;;;;;4.75;4.00;;;;;22.75;35.23;100854.47;5049819;28;46870;-76
2023/02/23 11:35:11;;;;;;;;;5.00;4.50;;;;;22.78;35.56;100849.88;5055978;28;45275;-74
2023/02/23 11:37:36;;;;;;;;;6.25;5.00;;;;;22.79;35.50;100849.75;5059207;28;45494;-74
2023/02/23 11:40:18;;;;;;;;;6.50;5.00;;;;;22.82;35.75;100851.31;5077384;27;45563;-73
2023/02/23 11:43:08;;;;;;;;;7.50;5.00;;;;;22.79;35.29;100852.44;5075873;28;46184;-74
2023/02/23 11:45:43;;;;;;;;;6.00;6.00;;;;;22.86;35.34;100851.00;5072831;27;45208;-76
2023/02/23 11:48:26;;;;;;;;;4.75;4.00;;;;;22.85;35.30;100849.28;5073686;28;45299;-76
2023/02/23 11:50:52;;;;;;;;;4.50;4.50;;;;;22.87;35.66;100843.81;5060707;28;45430;-76
2023/02/23 11:53:30;;;;;;;;;4.25;4.25;;;;;22.89;35.99;100841.88;5059148;28;45460;-73
2023/02/23 11:56:01;;;;;;;;;6.00;5.00;;;;;22.92;35.72;100838.97;5061843;28;45246;-73
2023/02/23 11:58:36;;;;;;;;;5.25;5.00;;;;;22.91;36.01;100845.28;5059756;28;45458;-74
2023/02/23 12:01:12;;;;;;;;;6.50;4.50;;;;;22.91;35.31;100845.28;5077453;28;45441;-73
2023/02/23 12:03:42;;;;;;;;;6.25;4.50;;;;;22.90;35.18;100839.09;5057896;28;46996;-73
2023/02/23 12:06:11;;;;;;;;;4.00;4.00;;;;;22.91;35.64;100846.16;5052372;28;45741;-74
2023/02/23 12:08:43;;;;;;;;;6.50;4.25;;;;;22.96;35.32;100842.25;5065178;28;45399;-73
2023/02/23 12:11:15;;;;;;;;;6.00;5.75;;;;;22.91;35.31;100824.81;5078439;28;45358;-73
2023/02/23 12:13:51;;;;;;;;;6.00;4.25;;;;;22.94;35.51;100834.38;5071047;28;45560;-74
2023/02/23 12:16:21;;;;;;;;;6.50;5.00;;;;;22.88;35.54;100825.03;5062734;28;45645;-75
2023/02/23 12:18:58;;;;;;;;;5.00;4.50;;;;;22.94;35.63;100835.22;5074749;27;45334;-75
2023/02/23 12:21:43;;;;;;;;;5.25;4.75;;;;;22.93;35.74;100827.34;5069207;28;46555;-76
2023/02/23 12:24:14;;;;;;;;;5.00;3.25;;;;;22.91;35.75;100834.59;5060582;28;47925;-73
2023/02/23 12:26:48;;;;;;;;;5.25;5.25;;;;;22.89;35.83;100832.03;5067724;28;45360;-73
2023/02/23 12:29:30;;;;;;;;;5.75;4.75;;;;;22.90;35.52;100832.91;5066796;28;45336;-73
2023/02/23 12:32:01;;;;;;;;;7.25;6.00;;;;;22.87;35.71;100830.47;5068665;27;45510;-75
2023/02/23 12:34:32;;;;;;;;;5.00;4.25;;;;;22.87;35.49;100834.00;5069778;28;46036;-75
2023/02/23 12:37:36;;;;;;;;;7.75;6.00;;;;;22.86;35.70;100820.75;5067830;28;45739;-75
2023/02/23 12:40:17;;;;;;;;;3.50;3.50;;;;;22.85;35.83;100819.91;5072545;28;45258;-73
2023/02/23 12:42:51;;;;;;;;;4.00;4.00;;;;;22.85;36.05;100814.59;5065085;28;45433;-79
2023/02/23 12:45:48;;;;;;;;;4.00;3.25;;;;;22.85;36.16;100816.41;5061426;28;46216;-76
2023/02/23 12:48:14;;;;;;;;;5.25;5.25;;;;;22.87;36.11;100811.81;5061723;27;45724;-75
2023/02/23 12:50:51;;;;;;;;;5.00;5.00;;;;;22.88;35.94;100817.03;5061986;28;45482;-76
2023/02/23 12:53:52;;;;;;;;;6.75;4.25;;;;;22.90;35.82;100819.56;5059812;28;45599;-76